SBUL/UDI METAR and TAF weather

Enter ICAO airport designator
Station Type Date Time Source
SBUL METAR 2019/04/25 11:00 UTC NOAA

SBUL 251100Z 08008KT CAVOK 22/17 Q1022


Station Type Date Time Source
SBUL Decoded METAR 2019/04/25 11:00 UTC NOAA

Uberlandia , Brazil (SBUL) 18-53S 048-14W
Apr 25, 2019 - 07:00 AM EDT / 2019.04.25 1100 UTC
Wind: from the E (080 degrees) at 9 MPH (8 KT):0
Visibility: greater than 7 mile(s):0
Temperature: 71 F (22 C)
Dew Point: 62 F (17 C)
Relative Humidity: 73%
Pressure (altimeter): 30.18 in. Hg (1022 hPa)
ob: SBUL 251100Z 08008KT CAVOK 22/17 Q1022
cycle: 11

Station Type Date Time Source
SBUL TAF 2019/04/25 12:33 UTC NOAA

TAF SBUL 250900Z 2512/2524 08010KT CAVOK TX28/2518Z TN22/2523Z
BECMG 2513/2515 9999 SCT035
BECMG 2518/2521 VCSH SCT035 FEW040TCU
BECMG 2521/2523 12005KT CAVOK
RMK PGH

Example: see airport list